OMAA/AUH METAR and TAF weather

Enter ICAO airport designator
Station Type Date Time Source
OMAA METAR 2020/12/06 01:29 UTC NOAA

OMAA 060129Z 19005KT 0500 R31L/0450 FG VV001 19/18 Q1012 TEMPO 0200 VV///


Station Type Date Time Source
OMAA Decoded METAR 2020/12/06 01:29 UTC NOAA

Abu Dhabi International Airport, United Arab Emirates (OMAA) 24-26N 054-39E 27M
Dec 05, 2020 - 08:29 PM EST / 2020.12.06 0129 UTC
Wind: from the S (190 degrees) at 6 MPH (5 KT):0
Visibility: less than 1 mile:0
Sky conditions: obscured
Weather: fog
Temperature: 66 F (19 C)
Dew Point: 64 F (18 C)
Relative Humidity: 93%
Pressure (altimeter): 29.88 in. Hg (1012 hPa)
ob: OMAA 060129Z 19005KT 0500 R31L/0450 FG VV001 19/18 Q1012 TEMPO 0200 VV///
cycle: 1

Station Type Date Time Source
OMAA TAF 2020/12/05 18:04 UTC NOAA

TAF OMAA 051700Z 0518/0700 34005KT 8000 NSC PROB40 0522/0606 4000 HZ PROB30 0601/0605 16005KT 0200 FG VV///
BECMG 0608/0610 24005KT
BECMG 0612/0614 32008KT
BECMG 0616/0618 06006KT
BECMG 0620/0622 14006KT

Example: see airport list